Airfield :
LOGIN :

Register | Disclaimer

   EN    FR    IT 

 










Legend :    VFR   Marginal VFR   IFR   Intensive IFR   Very Intensive IFR
Visi :
Ceiling :
>= 8 km
>= 3000ft
5 to 8 km
1000 to 3000 ft
1500m to 5 km
500 to 1000 ft
800 to 1500m
200 to 500 ft
< 800m
< 200 ft
Symbols :   Thunderstorms  Fog  Heavy snow  Heavy precipitations  Wind > 20 kt
SIGMETs :     Misc.  Thunderstorms  Icing  Turbulence  Mountain Waves  Volcanic Ashes







- Airport Elevation : 87 ft
- IATA code : FSC
- Download approach charts


LFKF - Figari

CURRENT METAR :
  • 192100Z AUTO 06010KT 9999 BKN043/// BKN070/// OVC082/// ///TCU 10/09 Q0998 TEMPO 06015G30KT 4000 SHRA SCT020CB

EXPIRED METARs :
  • 192030Z AUTO 05009KT 9999 FEW049/// BKN068/// OVC082/// ///TCU 10/09 Q0998 TEMPO 06015G30KT 4000 SHRA SCT020CB
  • 192000Z AUTO 08007KT 040V100 9999 OVC068/// ///CB 10/09 Q0999 TEMPO 06015G30KT 4000 SHRA
  • 191930Z AUTO 07011KT 9999 OVC062/// ///TCU 10/09 Q0999 TEMPO 06015G30KT 4000 SHRA SCT020CB
  • 191900Z AUTO 06012KT 030V090 9999 FEW050/// BKN062/// OVC072/// ///CB 10/09 Q0999 TEMPO 06015G30KT 4000 SHRA
  • 191830Z AUTO 06010KT 030V100 9999 BKN049/// OVC056/// ///CB 11/08 Q0999 TEMPO 06015G30KT 4000 SHRA

TAF TAF LFKF
Valid from the 19 at 15:00 until the 20 at 15:00 UTC


191400Z 1915/2015 06010KT 8000 -RA FEW015 SCT030TCU BKN050
TEMPO 1915/2002 06015G30KT
PROB40
TEMPO 1915/2003 4000 SHRA SCT020CB
BECMG 2006/2008 NSW FEW050
No reported NOTAMs for that airfield.



MET'MAP, your aeronautical weather chart ! - Copyright ORBIFLY December 2007 - Disclaimer

ORBIFLY MET'MAP TEAM :

Programming & Development : Alexandra Zaïnal
Concept & Development : Baudouin d'Aumeries
Co-Development & Prog : Marc-Olivier Méhu
Technical & hardware support : Manuel Goepfert

Contact : metmap@orbifly.com




SOURCES & CREDITS :

   NOAA